Soaring Guidance
Issued by NWS Reno, NV

Home | Current Version | Previous Version | Text Only | Print | Product List | Glossary On
Versions: 1 2 3 4 5 6 7 8 9 10 11 12 13 14
000
UXUS97 KREV 191351
SRGREV

SOARING FORECAST
NATIONAL WEATHER SERVICE - RENO NV
700 AM PDT SUN APR 19 2015

THIS SOARING FORECAST IS FOR THE EASTERN SIERRA AND WESTERN NEVADA
WITH SPECIFIC INDICES FOR THE GREATER RENO AREA.

THIS FORECAST IS NOT UPDATED.

FOR CURRENT FLIGHT CONDITIONS...FORECASTS...AND ADVISORIES...ACCESS
YOUR LOCAL BRIEFING OUTLET OR FLIGHT SERVICE STATION.

*******************************************************************
LOCAL INDICES FOR RENO:                   TODAY     YESTERDAY
MAXIMUM TEMPERATURE AT RENO...(DEG F)...     75
TRIGGER TEMPERATURE...........(DEG F)...     61          64
   EXCEEDED YESTERDAY BY 19Z
MAXIMUM ALTITUDE..............(FT MSL)..  17600       14500
SOARING INDEX.................(FPM).....   1128         795
FORECASTED K-INDEX.........VALID 18Z....      0           9
FORECASTED K-INDEX.........VALID 00Z....      0          10
FORECASTED LIFTED INDEX....VALID 18Z....      5           3
FORECASTED LIFTED INDEX....VALID 00Z....      4           1

AFTERNOON WINDS ALOFT FORECAST
MSL (FT) WIND/TEMP
9000  0206/+07
10000 9903/+04
12000 9900/+00
14000 9900/-05
16000 9900/-11
18000 9903/-17
24000 0810/-30
30000 0722/-47
34000 0724/-56
39000 0813/-63

SLIDE MOUNTAIN DATA:
 SLD HR 1250 M 34/9/0616/M  /SLIDE MTN UNOFFICIAL OBSERVATION

RENO TAF FORECAST:
KRNO 191120Z 1912/2012 VRB04KT P6SM SCT120 SCT250
     FM192100 05006KT P6SM FEW080 SCT250
     FM200400 VRB04KT P6SM SCT250

CARSON CITY TAF FORECAST:
KCXP 191120Z 1912/2012 VRB04KT P6SM SCT120 SCT250
     FM191900 07008G16KT P6SM FEW080 SCT250
     FM200400 VRB04KT P6SM SCT250

OUTLOOK FOR THE RENO-CARSON CITY-MINDEN AREA:
.MONDAY...SUNNY IN THE MORNING THEN BECOMING PARTLY CLOUDY. HIGHS
74 TO 79. LIGHT WINDS.

SUNRISE AND SUNSET
APRIL 19 2015.........SUNRISE   616 AM PDT   SUNSET   741 PM PDT
APRIL 20 2015.........SUNRISE   615 AM PDT   SUNSET   742 PM PDT



THIS PRODUCT IS ROUTINELY PREPARED BY 700 AM AND IS
DISTRIBUTED TO THE RENO FLIGHT SERVICE STATION AS WELL AS THE
NATIONAL WEATHER SERVICE WORLD WIDE WEB HOMEPAGE AT:
       HTTP://WWW.WEATHER.GOV/RENO





USA.gov is the U.S. government's official web portal to all federal, state and local government web resources and services.